createdAt,value
2018-09-14T00:01:32.006Z,12.90
2018-09-14T00:04:01.036Z,12.57
2018-09-14T00:06:29.351Z,11.77
2018-09-14T00:08:57.829Z,12.73
2018-09-14T00:11:26.263Z,14.10
2018-09-14T00:13:55.131Z,14.63
2018-09-14T00:16:23.544Z,10.17
2018-09-14T00:18:52.159Z,17.53
2018-09-14T00:21:20.565Z,11.57
2018-09-14T00:23:49.023Z,10.63
2018-09-14T00:26:17.456Z,11.50
2018-09-14T00:28:45.888Z,9.73
2018-09-14T00:31:14.734Z,9.63
2018-09-14T00:33:43.686Z,11.80
2018-09-14T00:36:12.053Z,9.70
2018-09-14T00:38:40.577Z,11.93
2018-09-14T00:41:09.116Z,10.93
2018-09-14T00:43:37.515Z,12.83
2018-09-14T00:46:06.216Z,14.80
2018-09-14T00:48:34.929Z,11.27
2018-09-14T00:51:03.372Z,11.73
2018-09-14T00:53:32.295Z,11.83
2018-09-14T00:56:00.776Z,11.23
2018-09-14T00:58:29.213Z,13.33
2018-09-14T01:00:57.585Z,10.30
2018-09-14T01:03:26.154Z,11.07
2018-09-14T01:05:54.587Z,11.63
2018-09-14T01:08:23.664Z,10.60
2018-09-14T01:10:52.202Z,12.83
2018-09-14T01:13:20.761Z,8.00
2018-09-14T01:15:49.330Z,6.23
2018-09-14T01:18:17.819Z,7.13
2018-09-14T01:20:46.519Z,9.37
2018-09-14T01:23:14.905Z,10.03
2018-09-14T01:25:43.374Z,8.40
2018-09-14T01:28:12.744Z,9.67
2018-09-14T01:30:41.186Z,9.93
2018-09-14T01:33:09.777Z,7.93
2018-09-14T01:35:43.423Z,9.90
2018-09-14T01:38:11.767Z,10.00
2018-09-14T01:40:40.164Z,6.50
2018-09-14T01:43:08.696Z,6.57
2018-09-14T01:45:37.153Z,6.63
2018-09-14T01:48:05.506Z,8.07
2018-09-14T01:50:33.826Z,6.63
2018-09-14T01:53:02.258Z,8.03
2018-09-14T01:55:32.297Z,8.47
2018-09-14T01:58:00.640Z,7.10
2018-09-14T02:00:28.984Z,9.43
2018-09-14T02:02:57.331Z,8.93
2018-09-14T02:05:25.678Z,5.47
2018-09-14T02:07:56.338Z,7.47
2018-09-14T02:10:24.925Z,5.50
2018-09-14T02:12:54.167Z,7.50
2018-09-14T02:15:23.141Z,6.83
2018-09-14T02:17:51.512Z,5.13
2018-09-14T02:20:20.206Z,5.33
2018-09-14T02:22:49.714Z,4.30
2018-09-14T02:25:20.062Z,7.43
2018-09-14T02:27:49.741Z,6.10
2018-09-14T02:30:18.332Z,4.97
2018-09-14T02:32:46.664Z,4.20
2018-09-14T02:35:15.107Z,6.43
2018-09-14T02:37:43.520Z,7.73
2018-09-14T02:40:11.877Z,4.73
2018-09-14T02:42:40.340Z,5.67
2018-09-14T02:45:08.758Z,3.93
2018-09-14T02:47:37.193Z,4.00
2018-09-14T02:50:05.589Z,6.07
2018-09-14T02:52:35.344Z,7.23
2018-09-14T02:55:03.852Z,7.70
2018-09-14T02:57:32.167Z,6.97
2018-09-14T03:00:00.690Z,7.00
2018-09-14T03:02:29.016Z,5.87
2018-09-14T03:04:57.363Z,5.87
2018-09-14T03:07:25.760Z,4.10
2018-09-14T03:09:54.208Z,6.13
2018-09-14T03:12:24.129Z,5.43
2018-09-14T03:14:52.567Z,5.40
2018-09-14T03:17:20.952Z,7.93
2018-09-14T03:19:49.373Z,9.67
2018-09-14T03:22:17.813Z,12.23
2018-09-14T03:24:48.191Z,10.60
2018-09-14T03:27:16.575Z,10.00
2018-09-14T03:29:46.513Z,7.10
2018-09-14T03:32:15.056Z,8.40
2018-09-14T03:34:43.340Z,4.93
2018-09-14T03:37:11.936Z,6.03
2018-09-14T03:39:42.816Z,8.17
2018-09-14T03:42:11.268Z,8.37
2018-09-14T03:44:40.718Z,9.53
2018-09-14T03:47:09.095Z,11.40
2018-09-14T03:49:37.526Z,9.17
2018-09-14T03:52:06.118Z,10.93
2018-09-14T03:54:34.472Z,12.80
2018-09-14T03:57:05.091Z,17.53
2018-09-14T03:59:36.477Z,15.10
2018-09-14T04:02:05.783Z,13.20
2018-09-14T04:04:34.492Z,12.00
2018-09-14T04:07:02.958Z,13.37
2018-09-14T04:09:32.048Z,14.00
2018-09-14T04:12:00.764Z,11.23
2018-09-14T04:14:29.276Z,11.60
2018-09-14T04:16:57.649Z,12.27
2018-09-14T04:19:25.968Z,10.40
2018-09-14T04:21:54.504Z,10.80
2018-09-14T04:24:22.964Z,9.67
2018-09-14T04:26:51.432Z,7.73
2018-09-14T04:29:20.607Z,7.60
2018-09-14T04:31:48.986Z,7.30
2018-09-14T04:34:17.319Z,7.53
2018-09-14T04:36:45.770Z,8.03
2018-09-14T04:39:14.192Z,7.63
2018-09-14T04:41:42.641Z,7.57
2018-09-14T04:44:11.109Z,11.43
2018-09-14T04:46:39.542Z,9.23
2018-09-14T04:49:07.923Z,8.60
2018-09-14T04:51:37.811Z,8.47
2018-09-14T04:54:06.221Z,10.63
2018-09-14T04:56:34.567Z,10.67
2018-09-14T04:59:03.021Z,14.00
2018-09-14T05:01:31.331Z,9.93
2018-09-14T05:03:59.761Z,10.43
2018-09-14T05:06:28.099Z,9.90
2018-09-14T05:08:56.429Z,10.47
2018-09-14T05:11:24.848Z,9.00
2018-09-14T05:13:53.421Z,10.43
2018-09-14T05:16:24.262Z,8.97
2018-09-14T05:18:52.656Z,9.90
2018-09-14T05:21:22.146Z,12.57
2018-09-14T05:23:50.495Z,9.47
2018-09-14T05:26:18.924Z,12.30
2018-09-14T05:28:47.312Z,10.77
2018-09-14T05:31:16.985Z,11.50
2018-09-14T05:33:45.304Z,9.93
2018-09-14T05:36:13.804Z,12.77
2018-09-14T05:38:42.145Z,9.30
2018-09-14T05:41:10.528Z,12.37
2018-09-14T05:43:39.027Z,11.57
2018-09-14T05:46:08.916Z,12.20
2018-09-14T05:48:37.265Z,11.37
2018-09-14T05:51:08.312Z,11.67
2018-09-14T05:53:36.708Z,10.23
2018-09-14T05:56:05.108Z,10.17
2018-09-14T05:58:33.497Z,10.93
2018-09-14T06:01:01.852Z,10.47
2018-09-14T06:03:30.224Z,9.73
2018-09-14T06:05:59.776Z,10.20
2018-09-14T06:08:28.217Z,11.77
2018-09-14T06:10:56.596Z,10.40
2018-09-14T06:13:25.175Z,13.47
2018-09-14T06:15:53.661Z,11.13
2018-09-14T06:18:24.469Z,10.67
2018-09-14T06:20:53.062Z,10.57
2018-09-14T06:23:21.405Z,10.10
2018-09-14T06:25:50.013Z,10.27
2018-09-14T06:28:18.371Z,9.47
2018-09-14T06:30:49.070Z,12.23
2018-09-14T06:33:17.499Z,11.03
2018-09-14T06:35:45.997Z,11.50
2018-09-14T06:38:14.353Z,12.03
2018-09-14T06:40:43.943Z,10.40
2018-09-14T06:43:12.829Z,11.33
2018-09-14T06:45:41.419Z,9.17
2018-09-14T06:48:11.188Z,12.47
2018-09-14T06:50:39.575Z,10.23
2018-09-14T06:53:07.904Z,9.33
2018-09-14T06:55:37.639Z,10.80
2018-09-14T06:58:06.049Z,12.53
2018-09-14T07:00:36.669Z,10.97
2018-09-14T07:03:05.919Z,10.20
2018-09-14T07:05:34.440Z,9.07
2018-09-14T07:08:03.478Z,9.23
2018-09-14T07:10:32.001Z,12.27
2018-09-14T07:13:00.598Z,10.07
2018-09-14T07:15:30.369Z,12.73
2018-09-14T07:17:58.794Z,10.80
2018-09-14T07:20:27.198Z,9.63
2018-09-14T07:22:55.643Z,9.30
2018-09-14T07:25:24.042Z,7.63
2018-09-14T07:27:52.697Z,8.97
2018-09-14T07:30:21.082Z,8.43
2018-09-14T07:32:49.493Z,12.47
2018-09-14T07:35:18.138Z,6.93
2018-09-14T07:37:46.606Z,7.60
2018-09-14T07:40:15.000Z,8.30
2018-09-14T07:42:43.370Z,8.07
2018-09-14T07:45:13.216Z,8.77
2018-09-14T07:47:43.999Z,8.50
2018-09-14T07:50:13.437Z,7.53
2018-09-14T07:52:45.185Z,9.13
2018-09-14T07:55:13.553Z,7.63
2018-09-14T07:57:41.941Z,8.77
2018-09-14T08:00:10.283Z,10.13
2018-09-14T08:02:38.892Z,8.47
2018-09-14T08:05:07.295Z,8.30
2018-09-14T08:07:36.049Z,8.80
2018-09-14T08:10:05.634Z,8.70
2018-09-14T08:12:34.048Z,8.50
2018-09-14T08:15:02.450Z,9.07
2018-09-14T08:17:30.860Z,8.30
2018-09-14T08:19:59.377Z,8.30
2018-09-14T08:22:31.764Z,7.43
2018-09-14T08:25:00.157Z,8.50
2018-09-14T08:27:28.532Z,8.00
2018-09-14T08:29:56.885Z,8.10
2018-09-14T08:32:25.459Z,7.97
2018-09-14T08:34:56.260Z,9.77
2018-09-14T08:37:24.659Z,8.37
2018-09-14T08:39:53.615Z,8.43
2018-09-14T08:42:23.009Z,8.70
2018-09-14T08:44:51.360Z,8.77
2018-09-14T08:47:19.728Z,8.53
2018-09-14T08:49:50.219Z,7.80
2018-09-14T08:52:22.994Z,8.37
2018-09-14T08:54:51.316Z,7.50
2018-09-14T08:57:19.626Z,7.27
2018-09-14T08:59:53.657Z,8.10
2018-09-14T09:02:22.056Z,8.40
2018-09-14T09:04:50.397Z,7.87
2018-09-14T09:07:19.416Z,8.07
2018-09-14T09:09:47.748Z,8.70
2018-09-14T09:12:17.882Z,8.83
2018-09-14T09:14:46.339Z,6.20
2018-09-14T09:17:14.727Z,7.03
2018-09-14T09:19:43.103Z,6.10
2018-09-14T09:22:19.722Z,5.77
2018-09-14T09:24:48.169Z,6.43
2018-09-14T09:27:16.537Z,5.97
2018-09-14T09:29:44.951Z,6.37
2018-09-14T09:32:14.220Z,6.00
2018-09-14T09:34:42.544Z,6.03
2018-09-14T09:37:11.047Z,22.30
2018-09-14T09:39:40.458Z,9.00
2018-09-14T09:42:10.615Z,15.73
2018-09-14T09:44:39.175Z,7.07
2018-09-14T09:47:09.609Z,12.03
2018-09-14T09:49:37.967Z,5.70
2018-09-14T09:52:06.662Z,6.43
2018-09-14T09:54:35.013Z,6.50
2018-09-14T09:57:05.154Z,4.73
2018-09-14T09:59:33.779Z,5.83
2018-09-14T10:02:07.705Z,5.13
2018-09-14T10:04:45.543Z,5.57
2018-09-14T10:07:14.267Z,6.20
2018-09-14T10:09:42.588Z,5.50
2018-09-14T10:12:11.173Z,5.47
2018-09-14T10:14:40.217Z,7.03
2018-09-14T10:20:07.764Z,5.20
2018-09-14T10:22:54.497Z,11.20
2018-09-14T10:25:35.097Z,8.00
2018-09-14T10:28:14.292Z,5.80
2018-09-14T10:30:42.673Z,5.83
2018-09-14T10:33:11.065Z,3.23
2018-09-14T10:35:39.471Z,6.97
2018-09-14T10:38:07.905Z,5.00
2018-09-14T10:40:36.305Z,4.50
2018-09-14T10:43:04.706Z,5.00
2018-09-14T10:45:33.087Z,4.33
2018-09-14T10:48:01.531Z,7.53
2018-09-14T10:50:30.192Z,6.13
2018-09-14T10:52:58.563Z,10.03
2018-09-14T10:55:26.909Z,5.83
2018-09-14T10:57:55.537Z,16.97
2018-09-14T11:03:09.429Z,8.67
2018-09-14T11:05:38.164Z,6.50
2018-09-14T11:08:06.796Z,5.53
2018-09-14T11:10:51.059Z,6.37
2018-09-14T11:13:20.282Z,6.83
2018-09-14T11:15:48.877Z,6.30
2018-09-14T11:18:17.339Z,6.63
2018-09-14T11:20:45.731Z,6.03
2018-09-14T11:23:14.964Z,13.33
2018-09-14T11:25:43.478Z,7.07
2018-09-14T11:28:11.767Z,9.17
2018-09-14T11:30:40.199Z,10.10
2018-09-14T11:33:08.783Z,7.60
2018-09-14T11:35:37.228Z,6.20
2018-09-14T11:38:05.912Z,5.13
2018-09-14T11:40:34.276Z,7.73
2018-09-14T11:43:24.856Z,10.13
2018-09-14T11:45:53.530Z,14.47
2018-09-14T11:48:22.084Z,7.27
2018-09-14T11:50:50.437Z,10.10
2018-09-14T11:53:18.871Z,9.43
2018-09-14T11:55:47.300Z,10.97
2018-09-14T11:58:15.772Z,9.27
2018-09-14T12:00:45.103Z,7.97
2018-09-14T12:03:13.422Z,15.40
2018-09-14T12:05:41.757Z,11.90
2018-09-14T12:08:10.343Z,11.43
2018-09-14T12:10:38.724Z,6.03
2018-09-14T12:13:07.112Z,5.90
2018-09-14T12:15:35.627Z,6.07
2018-09-14T12:18:04.090Z,9.43
2018-09-14T12:20:32.446Z,11.77
2018-09-14T12:23:00.885Z,11.93
2018-09-14T12:25:29.300Z,8.33
2018-09-14T12:27:57.789Z,7.10
2018-09-14T12:30:26.318Z,6.80
2018-09-14T12:32:55.121Z,7.13
2018-09-14T12:35:23.446Z,7.70
2018-09-14T12:37:51.841Z,8.43
2018-09-14T12:40:20.179Z,6.93
2018-09-14T12:42:48.581Z,6.97
2018-09-14T12:45:16.933Z,7.07
2018-09-14T12:47:45.275Z,7.50
2018-09-14T12:50:13.737Z,6.70
2018-09-14T12:52:42.119Z,8.30
2018-09-14T12:55:10.573Z,14.27
2018-09-14T12:57:38.959Z,11.83
2018-09-14T13:00:08.008Z,8.37
2018-09-14T13:02:36.688Z,8.40
2018-09-14T13:05:05.335Z,7.63
2018-09-14T13:07:33.723Z,28.93
2018-09-14T13:10:02.065Z,21.80
2018-09-14T13:12:30.558Z,12.80
2018-09-14T13:14:59.166Z,7.40
2018-09-14T13:17:27.516Z,5.53
2018-09-14T13:19:55.895Z,6.77
2018-09-14T13:22:24.427Z,5.30
2018-09-14T13:24:52.831Z,6.43
2018-09-14T13:27:21.245Z,6.40
2018-09-14T13:29:49.657Z,6.10
2018-09-14T13:32:18.131Z,6.47
2018-09-14T13:34:46.586Z,6.23
2018-09-14T13:37:15.003Z,5.93
2018-09-14T13:39:43.419Z,6.30
2018-09-14T13:42:11.937Z,6.70
2018-09-14T13:44:40.344Z,5.80
2018-09-14T13:47:08.761Z,5.80
2018-09-14T13:49:37.167Z,5.30
2018-09-14T13:52:05.703Z,6.20
2018-09-14T13:54:34.088Z,6.27
2018-09-14T13:57:02.479Z,5.60
2018-09-14T13:59:30.894Z,4.70
2018-09-14T14:01:59.357Z,5.50
2018-09-14T14:04:27.783Z,5.00
2018-09-14T14:06:56.157Z,5.57
2018-09-14T14:09:24.567Z,5.53
2018-09-14T14:11:53.025Z,3.80
2018-09-14T14:14:21.499Z,6.47
2018-09-14T14:16:50.077Z,7.47
2018-09-14T14:19:18.501Z,16.87
2018-09-14T14:21:46.918Z,6.87
2018-09-14T14:24:15.365Z,7.20
2018-09-14T14:26:43.734Z,7.17
2018-09-14T14:29:12.209Z,7.43
2018-09-14T14:31:40.595Z,6.63
2018-09-14T14:34:09.323Z,11.93
2018-09-14T14:36:37.823Z,6.83
2018-09-14T14:39:08.424Z,5.60
2018-09-14T14:41:36.902Z,11.53
2018-09-14T14:44:05.507Z,6.27
2018-09-14T14:46:33.943Z,6.87
2018-09-14T14:49:02.646Z,10.60
2018-09-14T14:51:31.307Z,8.60
2018-09-14T14:53:59.679Z,5.60
2018-09-14T14:56:28.014Z,6.53
2018-09-14T14:58:56.503Z,5.47
2018-09-14T15:01:24.999Z,5.53
2018-09-14T15:03:53.434Z,4.93
2018-09-14T15:06:21.899Z,5.60
2018-09-14T15:08:50.283Z,15.50
2018-09-14T15:11:18.679Z,5.87
2018-09-14T15:13:59.904Z,7.70
2018-09-14T15:16:28.367Z,6.60
2018-09-14T15:22:00.888Z,4.87
2018-09-14T15:24:29.295Z,6.77
2018-09-14T15:26:57.669Z,14.93
2018-09-14T15:29:26.069Z,6.60
2018-09-14T15:31:54.413Z,4.23
2018-09-14T15:34:22.811Z,5.53
2018-09-14T15:36:51.843Z,5.13
2018-09-14T15:39:20.266Z,6.13
2018-09-14T15:41:48.658Z,4.97
2018-09-14T15:44:17.318Z,5.57
2018-09-14T15:46:45.703Z,5.90
2018-09-14T15:49:14.151Z,7.13
2018-09-14T15:51:42.677Z,5.90
2018-09-14T15:54:11.047Z,6.33
2018-09-14T15:56:39.424Z,9.63
2018-09-14T15:59:08.660Z,9.33
2018-09-14T16:01:37.007Z,8.50
2018-09-14T16:04:05.399Z,15.30
2018-09-14T16:06:33.923Z,4.83
2018-09-14T16:09:02.375Z,6.57
2018-09-14T16:11:30.779Z,4.40
2018-09-14T16:13:59.501Z,6.00
2018-09-14T16:16:27.847Z,4.60
2018-09-14T16:18:56.412Z,9.37
2018-09-14T16:21:24.808Z,4.97
2018-09-14T16:23:53.200Z,5.63
2018-09-14T16:26:22.119Z,4.20
2018-09-14T16:28:50.580Z,4.97
2018-09-14T16:31:19.008Z,4.40
2018-09-14T16:33:47.462Z,5.60
2018-09-14T16:36:15.875Z,5.20
2018-09-14T16:38:44.217Z,4.00
2018-09-14T16:41:12.563Z,4.33
2018-09-14T16:43:41.255Z,4.33
2018-09-14T16:46:10.743Z,4.37
2018-09-14T16:48:39.229Z,4.13
2018-09-14T16:51:07.663Z,5.97
2018-09-14T16:53:37.259Z,4.37
2018-09-14T16:56:05.651Z,5.33
2018-09-14T16:58:34.071Z,6.77
2018-09-14T17:01:02.515Z,8.07
2018-09-14T17:03:31.026Z,8.87
2018-09-14T17:05:59.517Z,5.50
2018-09-14T17:08:27.927Z,7.33
2018-09-14T17:10:56.578Z,4.77
2018-09-14T17:13:24.939Z,5.87
2018-09-14T17:15:53.384Z,5.97
2018-09-14T17:18:21.737Z,5.33
2018-09-14T17:20:50.176Z,4.80
2018-09-14T17:23:18.609Z,4.03
2018-09-14T17:25:46.999Z,4.43
2018-09-14T17:28:15.428Z,5.10
2018-09-14T17:30:43.836Z,5.30
2018-09-14T17:33:12.184Z,4.37
2018-09-14T17:35:40.842Z,4.83
2018-09-14T17:38:09.245Z,5.60
2018-09-14T17:40:37.580Z,4.83
2018-09-14T17:43:06.073Z,5.17
2018-09-14T17:45:34.408Z,5.70
2018-09-14T17:48:02.912Z,5.80
2018-09-14T17:50:31.334Z,5.93
2018-09-14T17:52:59.760Z,5.80
2018-09-14T17:55:28.165Z,4.83
2018-09-14T17:57:56.708Z,6.43
2018-09-14T18:00:25.105Z,6.97
2018-09-14T18:02:53.461Z,6.80
2018-09-14T18:05:21.853Z,9.43
2018-09-14T18:07:50.276Z,9.67
2018-09-14T18:10:18.636Z,6.67
2018-09-14T18:12:47.101Z,9.23
2018-09-14T18:15:15.490Z,9.13
2018-09-14T18:17:43.874Z,9.43
2018-09-14T18:20:12.325Z,9.00
2018-09-14T18:22:40.852Z,8.53
2018-09-14T18:25:09.414Z,6.57
2018-09-14T18:27:37.871Z,6.13
2018-09-14T18:30:06.418Z,6.50
2018-09-14T18:32:34.734Z,6.37
2018-09-14T18:35:03.524Z,7.43
2018-09-14T18:37:31.940Z,5.47
2018-09-14T18:40:00.767Z,9.97
2018-09-14T18:42:29.240Z,5.93
2018-09-14T18:44:57.631Z,6.33
2018-09-14T18:47:26.047Z,8.23
2018-09-14T18:49:54.608Z,6.83
2018-09-14T18:52:22.973Z,5.70
2018-09-14T18:54:51.451Z,5.37
2018-09-14T18:57:19.970Z,9.43
2018-09-14T18:59:48.337Z,5.87
2018-09-14T19:02:16.741Z,5.40
2018-09-14T19:04:45.627Z,5.60
2018-09-14T19:07:14.075Z,5.37
2018-09-14T19:09:42.461Z,5.23
2018-09-14T19:12:10.854Z,5.77
2018-09-14T19:14:39.247Z,5.07
2018-09-14T19:17:07.704Z,4.90
2018-09-14T19:19:36.168Z,7.33
2018-09-14T19:22:04.544Z,4.43
2018-09-14T19:24:32.989Z,4.77
2018-09-14T19:27:01.512Z,4.90
2018-09-14T19:29:29.979Z,8.00
2018-09-14T19:31:58.328Z,5.77
2018-09-14T19:34:26.792Z,4.80
2018-09-14T19:36:55.159Z,4.13
2018-09-14T19:39:24.059Z,3.90
2018-09-14T19:41:52.535Z,4.40
2018-09-14T19:44:20.905Z,7.03
2018-09-14T19:46:49.355Z,4.70
2018-09-14T19:49:17.821Z,6.90
2018-09-14T19:51:46.228Z,6.47
2018-09-14T19:54:14.726Z,5.10
2018-09-14T19:56:43.332Z,5.07
2018-09-14T19:59:11.721Z,8.80
2018-09-14T20:01:40.160Z,4.30
2018-09-14T20:04:08.671Z,5.50
2018-09-14T20:06:37.017Z,4.40
2018-09-14T20:09:09.533Z,4.40
2018-09-14T20:11:38.010Z,6.47
2018-09-14T20:14:06.323Z,4.47
2018-09-14T20:16:34.751Z,7.43
2018-09-14T20:19:03.104Z,4.93
2018-09-14T20:21:31.479Z,4.00
2018-09-14T20:24:00.060Z,5.40
2018-09-14T20:26:28.710Z,4.30
2018-09-14T20:28:57.321Z,4.10
2018-09-14T20:31:25.807Z,5.70
2018-09-14T20:33:54.240Z,4.40
2018-09-14T20:36:22.704Z,4.43
2018-09-14T20:38:51.352Z,4.90
2018-09-14T20:41:19.725Z,5.37
2018-09-14T20:43:48.113Z,4.73
2018-09-14T20:46:16.531Z,4.20
2018-09-14T20:48:44.878Z,3.73
2018-09-14T20:51:14.104Z,3.97
2018-09-14T20:53:43.217Z,4.73
2018-09-14T20:56:11.699Z,4.57
2018-09-14T20:58:40.073Z,4.50
2018-09-14T21:01:08.432Z,3.90
2018-09-14T21:03:36.783Z,3.70
2018-09-14T21:06:05.125Z,4.03
2018-09-14T21:08:33.575Z,4.00
2018-09-14T21:11:01.927Z,5.20
2018-09-14T21:13:30.284Z,3.50
2018-09-14T21:15:58.863Z,5.50
2018-09-14T21:18:27.248Z,4.67
2018-09-14T21:20:55.636Z,3.73
2018-09-14T21:23:24.040Z,5.57
2018-09-14T21:25:52.487Z,3.87
2018-09-14T21:28:20.878Z,4.97
2018-09-14T21:30:49.348Z,5.90
2018-09-14T21:33:17.725Z,6.50
2018-09-14T21:35:46.104Z,3.73
2018-09-14T21:38:14.684Z,5.70
2018-09-14T21:40:43.040Z,6.87
2018-09-14T21:43:11.416Z,7.70
2018-09-14T21:45:39.807Z,5.83
2018-09-14T21:48:08.198Z,4.83
2018-09-14T21:50:36.580Z,5.20
2018-09-14T21:53:04.944Z,4.83
2018-09-14T21:55:33.274Z,4.03
2018-09-14T21:58:01.636Z,4.10
2018-09-14T22:00:35.697Z,4.30
2018-09-14T22:03:04.113Z,5.20
2018-09-14T22:05:32.458Z,6.03
2018-09-14T22:08:00.864Z,5.50
2018-09-14T22:10:29.203Z,5.57
2018-09-14T22:12:57.615Z,4.40
2018-09-14T22:15:25.987Z,5.00
2018-09-14T22:17:54.378Z,6.30
2018-09-14T22:20:22.760Z,6.30
2018-09-14T22:22:52.040Z,5.93
2018-09-14T22:25:20.459Z,6.00
2018-09-14T22:27:48.860Z,6.50
2018-09-14T22:30:17.223Z,5.37
2018-09-14T22:32:45.555Z,6.63
2018-09-14T22:35:14.080Z,3.90
2018-09-14T22:37:42.924Z,4.23
2018-09-14T22:40:11.266Z,4.90
2018-09-14T22:42:39.595Z,3.77
2018-09-14T22:45:08.278Z,4.13
2018-09-14T22:47:36.722Z,7.50
2018-09-14T22:50:05.118Z,5.50
2018-09-14T22:52:33.707Z,6.63
2018-09-14T22:55:02.131Z,4.53
2018-09-14T22:57:30.473Z,4.00
2018-09-14T22:59:58.921Z,4.93
2018-09-14T23:02:27.348Z,3.67
2018-09-14T23:04:55.708Z,3.60
2018-09-14T23:07:24.295Z,4.03
2018-09-14T23:09:52.626Z,5.33
2018-09-14T23:12:21.066Z,4.03
2018-09-14T23:14:50.196Z,5.67
2018-09-14T23:17:18.621Z,3.67
2018-09-14T23:19:47.023Z,3.73
2018-09-14T23:22:15.582Z,4.07
2018-09-14T23:24:44.582Z,3.23
2018-09-14T23:27:12.898Z,3.60
2018-09-14T23:29:41.430Z,3.73
2018-09-14T23:32:09.781Z,3.97
2018-09-14T23:34:38.194Z,8.60
2018-09-14T23:37:06.767Z,3.70
2018-09-14T23:39:35.195Z,5.40
2018-09-14T23:42:03.544Z,4.23
2018-09-14T23:44:31.962Z,3.00
2018-09-14T23:47:00.318Z,5.40
2018-09-14T23:49:28.668Z,7.83
2018-09-14T23:51:57.092Z,4.90
2018-09-14T23:54:25.424Z,3.23
2018-09-14T23:56:53.804Z,4.40
2018-09-14T23:59:22.224Z,7.80
